createdAt,value
2022-12-31T00:00:49.679Z,2.80
2022-12-31T00:03:19.574Z,2.90
2022-12-31T00:05:49.428Z,3.17
2022-12-31T00:08:19.200Z,2.73
2022-12-31T00:10:51.989Z,2.77
2022-12-31T00:13:21.925Z,3.07
2022-12-31T00:15:51.632Z,2.70
2022-12-31T00:18:21.332Z,3.00
2022-12-31T00:20:51.069Z,3.37
2022-12-31T00:23:20.813Z,3.37
2022-12-31T00:25:53.172Z,3.03
2022-12-31T00:28:22.916Z,3.73
2022-12-31T00:30:52.680Z,3.70
2022-12-31T00:33:22.592Z,3.97
2022-12-31T00:35:52.389Z,3.33
2022-12-31T00:38:22.105Z,3.43
2022-12-31T00:40:54.483Z,3.20
2022-12-31T00:43:24.207Z,3.50
2022-12-31T00:45:54.028Z,3.40
2022-12-31T00:48:24.003Z,3.77
2022-12-31T00:50:54.482Z,3.90
2022-12-31T00:53:24.486Z,3.67
2022-12-31T00:56:02.614Z,4.00
2022-12-31T00:58:32.567Z,3.57
2022-12-31T01:01:02.401Z,4.20
2022-12-31T01:03:32.287Z,3.30
2022-12-31T01:06:02.460Z,3.23
2022-12-31T01:08:32.283Z,2.97
2022-12-31T01:11:18.153Z,3.30
2022-12-31T01:13:49.049Z,3.67
2022-12-31T01:16:20.407Z,3.70
2022-12-31T01:18:50.143Z,4.10
2022-12-31T01:21:21.596Z,3.57
2022-12-31T01:23:51.323Z,3.80
2022-12-31T01:26:24.301Z,3.83
2022-12-31T01:28:54.105Z,3.97
2022-12-31T01:31:25.498Z,3.70
2022-12-31T01:33:55.961Z,3.60
2022-12-31T01:36:27.393Z,3.73
2022-12-31T01:39:00.266Z,3.47
2022-12-31T01:41:35.458Z,3.77
2022-12-31T01:44:26.328Z,3.73
2022-12-31T01:46:59.171Z,4.07
2022-12-31T01:49:34.141Z,3.53
2022-12-31T01:52:06.249Z,3.87
2022-12-31T01:54:42.467Z,3.50
2022-12-31T01:57:16.081Z,4.47
2022-12-31T01:59:47.964Z,3.10
2022-12-31T02:02:18.916Z,4.07
2022-12-31T02:04:50.024Z,3.57
2022-12-31T02:07:19.781Z,3.83
2022-12-31T02:09:49.535Z,3.67
2022-12-31T02:12:22.374Z,3.87
2022-12-31T02:14:54.882Z,3.33
2022-12-31T02:17:35.448Z,4.43
2022-12-31T02:20:34.040Z,3.97
2022-12-31T02:23:31.034Z,3.80
2022-12-31T02:26:29.355Z,3.63
2022-12-31T02:29:31.713Z,3.93
2022-12-31T02:32:08.828Z,4.23
2022-12-31T02:34:41.051Z,4.10
2022-12-31T02:37:16.260Z,3.90
2022-12-31T02:39:47.541Z,3.47
2022-12-31T02:42:17.464Z,4.07
2022-12-31T02:44:47.231Z,4.17
2022-12-31T02:47:27.277Z,3.50
2022-12-31T02:50:23.045Z,3.87
2022-12-31T02:53:01.882Z,3.33
2022-12-31T02:55:42.936Z,3.47
2022-12-31T02:58:21.728Z,4.30
2022-12-31T03:01:07.560Z,3.67
2022-12-31T03:03:41.168Z,3.60
2022-12-31T03:06:15.120Z,4.17
2022-12-31T03:08:57.805Z,3.60
2022-12-31T03:11:39.873Z,3.53
2022-12-31T03:14:09.696Z,4.10
2022-12-31T03:16:39.583Z,4.03
2022-12-31T03:19:24.408Z,4.50
2022-12-31T03:22:09.031Z,4.13
2022-12-31T03:24:51.148Z,4.27
2022-12-31T03:27:20.902Z,4.30
2022-12-31T03:29:50.654Z,4.33
2022-12-31T03:32:20.386Z,3.40
2022-12-31T03:34:52.813Z,2.93
2022-12-31T03:37:22.548Z,3.57
2022-12-31T03:39:52.292Z,2.47
2022-12-31T03:42:22.057Z,2.90
2022-12-31T03:44:51.863Z,2.77
2022-12-31T03:47:21.603Z,2.50
2022-12-31T03:49:54.277Z,2.57
2022-12-31T03:52:24.276Z,2.60
2022-12-31T03:54:54.071Z,2.27
2022-12-31T03:57:23.899Z,2.83
2022-12-31T03:59:53.763Z,2.60
2022-12-31T04:02:28.843Z,2.27
2022-12-31T04:05:01.912Z,1.90
2022-12-31T04:07:31.660Z,2.10
2022-12-31T04:10:01.420Z,2.30
2022-12-31T04:12:31.155Z,1.87
2022-12-31T04:15:00.990Z,2.43
2022-12-31T04:17:30.874Z,1.93
2022-12-31T04:20:03.288Z,2.00
2022-12-31T04:22:33.025Z,2.67
2022-12-31T04:25:02.850Z,1.90
2022-12-31T04:27:32.640Z,2.00
2022-12-31T04:30:02.377Z,1.73
2022-12-31T04:32:32.131Z,2.03
2022-12-31T04:35:04.507Z,2.03
2022-12-31T04:37:34.258Z,2.20
2022-12-31T04:40:06.732Z,2.10
2022-12-31T04:42:36.888Z,1.50
2022-12-31T04:45:07.805Z,1.73
2022-12-31T04:47:37.520Z,1.27
2022-12-31T04:50:10.658Z,1.43
2022-12-31T04:52:42.910Z,1.87
2022-12-31T04:55:13.911Z,1.80
2022-12-31T04:57:44.246Z,1.63
2022-12-31T05:00:15.096Z,1.40
2022-12-31T05:02:44.927Z,1.70
2022-12-31T05:05:17.547Z,1.87
2022-12-31T05:07:47.262Z,1.87
2022-12-31T05:10:16.979Z,1.80
2022-12-31T05:12:46.721Z,2.53
2022-12-31T05:15:16.503Z,1.97
2022-12-31T05:17:46.270Z,2.40
2022-12-31T05:20:18.645Z,2.20
2022-12-31T05:22:48.414Z,2.70
2022-12-31T05:25:18.223Z,2.50
2022-12-31T05:27:48.013Z,2.40
2022-12-31T05:30:18.730Z,2.97
2022-12-31T05:32:48.710Z,2.97
2022-12-31T05:35:21.523Z,3.27
2022-12-31T05:37:51.248Z,2.70
2022-12-31T05:40:21.192Z,3.17
2022-12-31T05:42:52.143Z,2.80
2022-12-31T05:45:26.819Z,2.90
2022-12-31T05:48:00.015Z,2.87
2022-12-31T05:50:32.400Z,3.40
2022-12-31T05:53:02.139Z,2.80
2022-12-31T05:55:31.902Z,2.87
2022-12-31T05:58:01.637Z,3.17
2022-12-31T06:00:31.367Z,3.20
2022-12-31T06:03:01.182Z,3.07
2022-12-31T06:05:33.648Z,2.70
2022-12-31T06:08:03.338Z,2.57
2022-12-31T06:10:33.104Z,2.00
2022-12-31T06:13:02.898Z,2.30
2022-12-31T06:15:32.655Z,2.50
2022-12-31T06:18:02.487Z,1.80
2022-12-31T06:20:34.934Z,1.90
2022-12-31T06:23:04.681Z,1.40
2022-12-31T06:25:34.408Z,1.43
2022-12-31T06:28:04.144Z,1.27
2022-12-31T06:30:34.223Z,1.10
2022-12-31T06:33:04.046Z,1.60
2022-12-31T06:35:36.499Z,1.50
2022-12-31T06:38:06.292Z,1.47
2022-12-31T06:40:36.153Z,1.30
2022-12-31T06:43:05.939Z,1.40
2022-12-31T06:45:35.673Z,1.30
2022-12-31T06:48:05.454Z,1.57
2022-12-31T06:50:37.886Z,1.30
2022-12-31T06:53:07.650Z,1.83
2022-12-31T06:55:38.158Z,1.70
2022-12-31T06:58:08.813Z,1.50
2022-12-31T07:00:39.125Z,1.90
2022-12-31T07:03:29.647Z,1.90
2022-12-31T07:06:10.305Z,2.10
2022-12-31T07:08:50.038Z,2.10
2022-12-31T07:11:25.090Z,3.17
2022-12-31T07:14:14.356Z,2.83
2022-12-31T07:16:58.839Z,3.10
2022-12-31T07:19:38.387Z,2.57
2022-12-31T07:22:15.965Z,2.90
2022-12-31T07:24:46.506Z,1.97
2022-12-31T07:27:44.226Z,2.50
2022-12-31T07:30:18.809Z,2.67
2022-12-31T07:33:12.491Z,2.10
2022-12-31T07:35:51.455Z,2.10
2022-12-31T07:38:32.662Z,2.60
2022-12-31T07:41:12.662Z,2.23
2022-12-31T07:43:56.023Z,2.27
2022-12-31T07:46:31.698Z,1.93
2022-12-31T07:49:02.092Z,2.00
2022-12-31T07:51:32.479Z,2.10
2022-12-31T07:54:10.173Z,2.10
2022-12-31T07:56:43.950Z,2.00
2022-12-31T07:59:24.888Z,2.30
2022-12-31T08:02:02.752Z,2.50
2022-12-31T08:04:43.403Z,2.33
2022-12-31T08:07:23.869Z,2.90
2022-12-31T08:10:05.254Z,2.90
2022-12-31T08:12:37.927Z,2.80
2022-12-31T08:15:16.231Z,2.80
2022-12-31T08:17:46.904Z,2.70
2022-12-31T08:20:17.701Z,2.70
2022-12-31T08:23:14.318Z,2.23
2022-12-31T08:26:02.248Z,2.00
2022-12-31T08:28:49.803Z,1.67
2022-12-31T08:31:22.888Z,2.50
2022-12-31T08:34:05.471Z,1.97
2022-12-31T08:36:43.336Z,2.00
2022-12-31T08:39:26.095Z,2.13
2022-12-31T08:42:01.299Z,10.30
2022-12-31T08:44:39.415Z,2.93
2022-12-31T08:47:19.990Z,2.20
2022-12-31T08:49:50.344Z,2.40
2022-12-31T08:52:26.449Z,8.63
2022-12-31T08:54:57.294Z,5.97
2022-12-31T08:57:38.025Z,3.07
2022-12-31T09:00:12.352Z,3.00
2022-12-31T09:03:02.142Z,2.40
2022-12-31T09:05:38.112Z,3.53
2022-12-31T09:08:19.657Z,3.63
2022-12-31T09:10:56.952Z,5.53
2022-12-31T09:13:39.140Z,3.40
2022-12-31T09:16:16.820Z,7.40
2022-12-31T09:18:46.767Z,7.13
2022-12-31T09:21:18.356Z,6.60
2022-12-31T09:23:48.791Z,9.80
2022-12-31T09:26:34.107Z,3.47
2022-12-31T09:29:18.194Z,3.10
2022-12-31T09:31:55.698Z,10.00
2022-12-31T09:34:31.380Z,11.57
2022-12-31T09:37:08.553Z,3.00
2022-12-31T09:39:44.948Z,2.50
2022-12-31T09:42:56.789Z,2.30
2022-12-31T09:45:51.236Z,2.40
2022-12-31T09:48:54.015Z,2.30
2022-12-31T09:51:33.921Z,2.13
2022-12-31T09:54:22.840Z,15.03
2022-12-31T09:57:07.939Z,1.73
2022-12-31T09:59:43.298Z,1.83
2022-12-31T10:02:26.805Z,2.00
2022-12-31T10:05:11.578Z,1.70
2022-12-31T10:07:53.888Z,1.50
2022-12-31T10:10:30.038Z,1.50
2022-12-31T10:13:30.706Z,1.60
2022-12-31T10:16:17.390Z,1.50
2022-12-31T10:19:24.694Z,1.60
2022-12-31T10:22:06.780Z,1.73
2022-12-31T10:25:00.879Z,1.80
2022-12-31T10:27:41.794Z,1.23
2022-12-31T10:30:18.041Z,1.80
2022-12-31T10:33:01.861Z,3.07
2022-12-31T10:35:43.910Z,1.80
2022-12-31T10:38:30.120Z,1.60
2022-12-31T10:41:50.366Z,1.90
2022-12-31T10:44:49.090Z,2.17
2022-12-31T10:47:48.587Z,2.40
2022-12-31T10:50:48.090Z,2.40
2022-12-31T10:53:56.562Z,2.23
2022-12-31T10:57:09.502Z,2.50
2022-12-31T11:00:09.285Z,2.40
2022-12-31T11:03:12.739Z,3.60
2022-12-31T11:06:12.430Z,4.33
2022-12-31T11:09:16.455Z,3.03
2022-12-31T11:11:56.084Z,5.90
2022-12-31T11:14:52.821Z,2.78
2022-12-31T11:17:37.616Z,3.35
2022-12-31T11:20:26.220Z,3.53
2022-12-31T11:23:13.288Z,3.80
2022-12-31T11:25:52.725Z,3.07
2022-12-31T11:28:43.048Z,2.80
2022-12-31T11:31:22.836Z,2.87
2022-12-31T11:34:05.124Z,2.63
2022-12-31T11:36:43.508Z,3.10
2022-12-31T11:39:37.496Z,3.50
2022-12-31T11:42:22.102Z,3.30
2022-12-31T11:45:02.459Z,4.20
2022-12-31T11:48:28.573Z,3.13
2022-12-31T11:50:51.713Z,3.00
2022-12-31T11:53:44.530Z,3.50
2022-12-31T11:56:20.051Z,3.30
2022-12-31T11:58:52.498Z,3.27
2022-12-31T12:01:29.810Z,3.00
2022-12-31T12:03:59.620Z,3.40
2022-12-31T12:06:34.046Z,4.17
2022-12-31T12:09:09.114Z,2.33
2022-12-31T12:11:41.818Z,2.83
2022-12-31T12:14:22.694Z,2.70
2022-12-31T12:17:04.806Z,2.90
2022-12-31T12:19:36.733Z,3.03
2022-12-31T12:22:14.005Z,7.57
2022-12-31T12:24:56.570Z,6.27
2022-12-31T12:27:30.743Z,2.97
2022-12-31T12:30:00.487Z,2.67
2022-12-31T12:32:32.842Z,3.70
2022-12-31T12:35:02.798Z,2.93
2022-12-31T12:37:36.258Z,11.83
2022-12-31T12:40:09.828Z,4.03
2022-12-31T12:42:48.934Z,11.07
2022-12-31T12:45:20.834Z,3.30
2022-12-31T12:47:58.810Z,2.57
2022-12-31T12:50:39.562Z,2.90
2022-12-31T12:53:34.844Z,3.40
2022-12-31T12:56:15.158Z,2.60
2022-12-31T12:58:55.203Z,3.10
2022-12-31T13:01:35.022Z,3.22
2022-12-31T13:04:41.095Z,2.80
2022-12-31T13:07:27.226Z,3.20
2022-12-31T13:10:17.963Z,3.17
2022-12-31T13:15:55.787Z,3.30
2022-12-31T13:18:40.800Z,3.03
2022-12-31T13:21:32.699Z,3.20
2022-12-31T13:24:13.094Z,3.20
2022-12-31T13:26:50.326Z,3.33
2022-12-31T13:29:25.049Z,4.00
2022-12-31T13:31:57.573Z,49.40
2022-12-31T13:34:31.677Z,5.13
2022-12-31T13:37:09.637Z,3.73
2022-12-31T13:39:43.193Z,4.77
2022-12-31T13:42:23.649Z,5.03
2022-12-31T13:44:59.032Z,4.63
2022-12-31T13:47:36.238Z,3.90
2022-12-31T13:50:14.698Z,3.20
2022-12-31T13:52:51.676Z,3.73
2022-12-31T13:55:25.799Z,4.30
2022-12-31T13:57:59.369Z,43.60
2022-12-31T14:00:32.940Z,3.97
2022-12-31T14:03:12.856Z,3.50
2022-12-31T14:05:50.626Z,2.60
2022-12-31T14:08:22.954Z,3.07
2022-12-31T14:11:05.208Z,3.10
2022-12-31T14:13:54.204Z,2.80
2022-12-31T14:16:29.349Z,3.07
2022-12-31T14:19:07.679Z,2.97
2022-12-31T14:21:44.216Z,2.53
2022-12-31T14:24:21.725Z,2.70
2022-12-31T14:26:55.501Z,2.23
2022-12-31T14:29:34.814Z,2.60
2022-12-31T14:32:29.876Z,2.00
2022-12-31T14:35:16.641Z,1.98
2022-12-31T14:37:55.291Z,1.80
2022-12-31T14:40:33.059Z,3.27
2022-12-31T14:43:16.171Z,2.20
2022-12-31T14:45:59.241Z,4.20
2022-12-31T14:48:39.423Z,2.10
2022-12-31T14:51:09.747Z,2.00
2022-12-31T14:53:39.571Z,1.27
2022-12-31T14:56:43.211Z,17.07
2022-12-31T14:59:29.796Z,7.53
2022-12-31T15:02:00.900Z,1.90
2022-12-31T15:04:34.924Z,4.60
2022-12-31T15:07:13.961Z,5.73
2022-12-31T15:09:54.122Z,2.10
2022-12-31T15:12:44.935Z,2.30
2022-12-31T15:15:33.547Z,2.00
2022-12-31T15:18:20.087Z,1.40
2022-12-31T15:21:17.736Z,1.50
2022-12-31T15:23:49.778Z,4.80
2022-12-31T15:26:25.967Z,2.10
2022-12-31T15:29:08.231Z,1.33
2022-12-31T15:31:39.454Z,1.50
2022-12-31T15:34:24.352Z,1.80
2022-12-31T15:36:56.886Z,1.27
2022-12-31T15:39:30.403Z,1.00
2022-12-31T15:42:36.780Z,1.30
2022-12-31T15:44:59.545Z,3.08
2022-12-31T15:47:32.482Z,3.70
2022-12-31T15:50:05.307Z,38.20
2022-12-31T15:52:42.954Z,25.90
2022-12-31T15:55:24.943Z,5.60
2022-12-31T15:57:57.210Z,2.78
2022-12-31T16:00:40.692Z,3.00
2022-12-31T16:03:23.922Z,3.17
2022-12-31T16:05:55.703Z,2.67
2022-12-31T16:08:28.508Z,2.67
2022-12-31T16:10:58.923Z,2.80
2022-12-31T16:13:32.378Z,10.17
2022-12-31T16:16:08.488Z,8.63
2022-12-31T16:18:42.161Z,18.53
2022-12-31T16:21:27.056Z,3.58
2022-12-31T16:23:59.004Z,4.53
2022-12-31T16:26:34.523Z,3.60
2022-12-31T16:29:05.426Z,4.47
2022-12-31T16:31:38.005Z,13.90
2022-12-31T16:34:14.557Z,9.30
2022-12-31T16:36:44.767Z,4.20
2022-12-31T16:39:33.942Z,5.50
2022-12-31T16:42:21.775Z,4.80
2022-12-31T16:44:52.927Z,6.67
2022-12-31T16:47:28.834Z,5.60
2022-12-31T16:50:05.555Z,4.40
2022-12-31T16:52:38.555Z,5.00
2022-12-31T16:55:11.089Z,4.30
2022-12-31T16:57:43.452Z,5.60
2022-12-31T17:00:20.904Z,6.93
2022-12-31T17:03:02.523Z,3.50
2022-12-31T17:05:32.744Z,4.37
2022-12-31T17:08:22.567Z,4.65
2022-12-31T17:10:52.279Z,4.87
2022-12-31T17:13:37.462Z,4.27
2022-12-31T17:16:07.812Z,5.55
2022-12-31T17:18:41.908Z,4.53
2022-12-31T17:21:13.423Z,6.30
2022-12-31T17:23:44.816Z,4.30
2022-12-31T17:26:16.507Z,5.10
2022-12-31T17:28:48.517Z,6.03
2022-12-31T17:31:37.577Z,5.53
2022-12-31T17:34:24.242Z,5.17
2022-12-31T17:37:05.269Z,4.63
2022-12-31T17:39:52.370Z,4.97
2022-12-31T17:42:32.729Z,4.70
2022-12-31T17:45:04.464Z,7.17
2022-12-31T17:47:37.734Z,5.90
2022-12-31T17:50:25.128Z,7.07
2022-12-31T17:52:58.677Z,8.40
2022-12-31T17:55:28.436Z,6.00
2022-12-31T17:58:00.780Z,9.97
2022-12-31T18:00:30.655Z,6.83
2022-12-31T18:03:00.524Z,7.23
2022-12-31T18:05:32.948Z,6.07
2022-12-31T18:08:02.710Z,6.40
2022-12-31T18:10:37.233Z,6.00
2022-12-31T18:13:08.549Z,6.30
2022-12-31T18:15:38.315Z,6.27
2022-12-31T18:18:24.520Z,9.57
2022-12-31T18:21:01.475Z,6.33
2022-12-31T18:23:34.191Z,6.77
2022-12-31T18:26:03.913Z,7.53
2022-12-31T18:28:34.031Z,6.40
2022-12-31T18:31:03.929Z,6.70
2022-12-31T18:33:33.755Z,6.50
2022-12-31T18:36:09.318Z,6.63
2022-12-31T18:38:40.027Z,6.37
2022-12-31T18:41:11.350Z,6.50
2022-12-31T18:43:41.043Z,6.63
2022-12-31T18:46:13.973Z,7.10
2022-12-31T18:48:44.418Z,8.33
2022-12-31T18:51:20.680Z,8.50
2022-12-31T18:53:51.093Z,10.43
2022-12-31T18:56:22.580Z,9.63
2022-12-31T18:58:52.482Z,17.80
2022-12-31T19:01:30.856Z,10.00
2022-12-31T19:04:02.775Z,10.50
2022-12-31T19:06:35.134Z,17.77
2022-12-31T19:09:13.232Z,19.37
2022-12-31T19:11:54.598Z,12.00
2022-12-31T19:14:26.819Z,13.40
2022-12-31T19:19:28.938Z,19.37
2022-12-31T19:22:01.311Z,14.30
2022-12-31T19:24:31.274Z,11.20
2022-12-31T19:27:01.165Z,14.27
2022-12-31T19:29:31.350Z,9.13
2022-12-31T19:32:02.483Z,25.88
2022-12-31T19:34:32.479Z,7.87
2022-12-31T19:37:04.853Z,13.53
2022-12-31T19:39:34.581Z,10.87
2022-12-31T19:42:04.322Z,10.03
2022-12-31T19:44:34.094Z,12.57
2022-12-31T19:47:04.078Z,11.93
2022-12-31T19:49:33.808Z,16.77
2022-12-31T19:52:06.382Z,10.00
2022-12-31T19:54:36.170Z,6.73
2022-12-31T19:57:05.958Z,7.30
2022-12-31T19:59:35.716Z,8.83
2022-12-31T20:02:05.870Z,7.13
2022-12-31T20:04:35.665Z,5.53
2022-12-31T20:07:08.151Z,6.50
2022-12-31T20:09:37.942Z,5.60
2022-12-31T20:12:08.082Z,5.10
2022-12-31T20:14:37.843Z,4.60
2022-12-31T20:17:07.670Z,5.37
2022-12-31T20:19:37.619Z,5.13
2022-12-31T20:22:09.978Z,4.63
2022-12-31T20:24:39.737Z,4.68
2022-12-31T20:27:16.538Z,7.63
2022-12-31T20:29:48.567Z,5.33
2022-12-31T20:32:18.311Z,5.43
2022-12-31T20:34:48.018Z,5.47
2022-12-31T20:37:20.454Z,6.07
2022-12-31T20:39:50.255Z,8.43
2022-12-31T20:42:20.044Z,5.13
2022-12-31T20:44:49.846Z,5.68
2022-12-31T20:47:19.634Z,4.90
2022-12-31T20:52:41.792Z,5.03
2022-12-31T20:55:13.871Z,5.33
2022-12-31T20:57:43.754Z,5.05
2022-12-31T21:00:15.053Z,5.70
2022-12-31T21:02:50.983Z,15.70
2022-12-31T21:05:24.274Z,5.78
2022-12-31T21:07:56.901Z,9.40
2022-12-31T21:10:26.845Z,5.37
2022-12-31T21:12:53.983Z,6.47
2022-12-31T21:15:24.262Z,6.77
2022-12-31T21:17:54.026Z,5.50
2022-12-31T21:20:23.811Z,6.37
2022-12-31T21:22:56.177Z,5.78
2022-12-31T21:25:25.933Z,8.03
2022-12-31T21:27:55.691Z,11.00
2022-12-31T21:30:25.490Z,4.73
2022-12-31T21:32:55.242Z,4.77
2022-12-31T21:35:42.661Z,8.53
2022-12-31T21:38:16.045Z,4.90
2022-12-31T21:40:45.930Z,5.97
2022-12-31T21:43:16.786Z,5.70
2022-12-31T21:45:46.681Z,5.17
2022-12-31T21:48:21.489Z,5.10
2022-12-31T21:50:53.123Z,4.73
2022-12-31T21:53:35.984Z,5.73
2022-12-31T21:56:14.625Z,4.93
2022-12-31T21:58:46.238Z,11.07
2022-12-31T22:01:33.601Z,7.80
2022-12-31T22:04:03.469Z,5.33
2022-12-31T22:06:34.320Z,4.97
2022-12-31T22:09:06.877Z,7.00
2022-12-31T22:11:36.654Z,6.70
2022-12-31T22:14:06.367Z,6.40
2022-12-31T22:16:36.162Z,7.77
2022-12-31T22:19:05.951Z,7.77
2022-12-31T22:21:35.759Z,7.50
2022-12-31T22:24:08.900Z,7.63
2022-12-31T22:26:44.541Z,8.00
2022-12-31T22:29:16.262Z,9.33
2022-12-31T22:31:46.038Z,9.43
2022-12-31T22:34:15.923Z,7.80
2022-12-31T22:36:45.693Z,7.67
2022-12-31T22:39:44.618Z,8.23
2022-12-31T22:42:09.328Z,7.97
2022-12-31T22:44:39.120Z,8.47
2022-12-31T22:47:08.901Z,7.43
2022-12-31T22:49:38.672Z,7.50
2022-12-31T22:52:08.957Z,7.37
2022-12-31T22:54:41.563Z,7.07
2022-12-31T22:57:17.811Z,7.60
2022-12-31T22:59:49.789Z,7.70
2022-12-31T23:02:22.495Z,7.30
2022-12-31T23:04:52.371Z,11.03
2022-12-31T23:07:42.038Z,32.40
2022-12-31T23:10:30.277Z,46.80
2022-12-31T23:13:21.698Z,31.50
2022-12-31T23:16:03.903Z,10.67
2022-12-31T23:18:46.134Z,10.60
2022-12-31T23:21:29.746Z,9.93
2022-12-31T23:23:59.678Z,12.57
2022-12-31T23:26:42.089Z,13.17
2022-12-31T23:29:13.014Z,15.23
2022-12-31T23:31:42.865Z,13.82
2022-12-31T23:34:12.845Z,16.00
2022-12-31T23:36:42.570Z,16.17
2022-12-31T23:39:13.569Z,19.37
2022-12-31T23:41:45.904Z,21.70
2022-12-31T23:44:15.637Z,28.97
2022-12-31T23:46:46.087Z,24.25
2022-12-31T23:49:15.829Z,27.83
2022-12-31T23:51:45.767Z,28.67
2022-12-31T23:54:16.004Z,29.57
2022-12-31T23:56:48.367Z,30.23
2022-12-31T23:59:18.570Z,25.00
